createdAt,value
2018-12-23T00:00:19.796Z,3.50
2018-12-23T00:05:22.960Z,3.97
2018-12-23T00:10:26.175Z,4.50
2018-12-23T00:15:29.398Z,4.03
2018-12-23T00:20:32.782Z,3.83
2018-12-23T00:25:35.997Z,3.77
2018-12-23T00:30:39.178Z,3.87
2018-12-23T00:35:42.345Z,4.27
2018-12-23T00:40:45.456Z,3.93
2018-12-23T00:45:48.603Z,4.00
2018-12-23T00:50:51.708Z,4.00
2018-12-23T00:55:54.838Z,3.87
2018-12-23T01:00:58.057Z,4.23
2018-12-23T01:06:01.233Z,4.40
2018-12-23T01:11:04.470Z,3.77
2018-12-23T01:16:07.633Z,4.10
2018-12-23T01:21:10.879Z,4.77
2018-12-23T01:26:13.987Z,4.23
2018-12-23T01:31:17.140Z,4.47
2018-12-23T01:36:20.263Z,4.23
2018-12-23T01:41:23.365Z,4.23
2018-12-23T01:46:26.481Z,4.50
2018-12-23T01:51:29.713Z,4.20
2018-12-23T01:56:32.890Z,4.87
2018-12-23T02:01:36.052Z,4.87
2018-12-23T02:06:39.208Z,4.83
2018-12-23T02:11:42.449Z,4.77
2018-12-23T02:16:45.681Z,4.93
2018-12-23T02:21:48.872Z,4.93
2018-12-23T02:26:52.058Z,4.40
2018-12-23T02:31:55.238Z,4.80
2018-12-23T02:36:58.414Z,4.90
2018-12-23T02:42:01.658Z,4.83
2018-12-23T02:47:04.828Z,4.83
2018-12-23T02:52:08.021Z,5.00
2018-12-23T02:57:11.255Z,4.20
2018-12-23T03:02:14.418Z,4.83
2018-12-23T03:07:17.640Z,5.27
2018-12-23T03:12:20.843Z,4.73
2018-12-23T03:17:24.059Z,5.00
2018-12-23T03:22:27.270Z,5.77
2018-12-23T03:27:30.634Z,5.07
2018-12-23T03:32:33.967Z,5.40
2018-12-23T03:37:37.066Z,5.33
2018-12-23T03:42:40.207Z,4.90
2018-12-23T03:47:43.436Z,5.13
2018-12-23T03:52:46.627Z,5.10
2018-12-23T03:57:49.701Z,5.77
2018-12-23T04:02:52.846Z,5.17
2018-12-23T04:07:55.990Z,4.90
2018-12-23T04:12:59.127Z,5.70
2018-12-23T04:18:02.291Z,5.67
2018-12-23T04:23:05.435Z,5.30
2018-12-23T04:28:08.621Z,6.13
2018-12-23T04:49:35.851Z,5.37
2018-12-23T04:54:38.942Z,5.10
2018-12-23T04:59:42.022Z,5.50
2018-12-23T05:04:45.168Z,5.60
2018-12-23T05:09:48.231Z,5.27
2018-12-23T05:14:51.378Z,5.30
2018-12-23T05:19:54.534Z,5.33
2018-12-23T05:24:57.667Z,6.10
2018-12-23T05:30:00.848Z,5.63
2018-12-23T05:35:04.250Z,5.03
2018-12-23T05:40:07.391Z,5.43
2018-12-23T05:45:10.515Z,4.50
2018-12-23T05:50:13.684Z,5.43
2018-12-23T05:55:23.654Z,5.17
2018-12-23T06:00:26.734Z,5.30
2018-12-23T06:05:29.865Z,4.70
2018-12-23T06:10:32.963Z,5.20
2018-12-23T06:15:36.115Z,4.90
2018-12-23T06:20:39.201Z,5.23
2018-12-23T06:25:42.293Z,5.23
2018-12-23T06:30:45.380Z,5.23
2018-12-23T06:35:48.517Z,5.23
2018-12-23T06:40:51.654Z,5.80
2018-12-23T06:45:54.793Z,5.17
2018-12-23T06:50:57.890Z,6.03
2018-12-23T06:56:01.054Z,5.50
2018-12-23T07:01:04.269Z,6.23
2018-12-23T07:06:07.486Z,5.60
2018-12-23T07:11:10.579Z,5.73
2018-12-23T07:16:13.756Z,4.80
2018-12-23T07:21:17.062Z,6.00
2018-12-23T07:26:20.147Z,5.37
2018-12-23T07:31:23.299Z,5.73
2018-12-23T07:36:26.506Z,5.17
2018-12-23T07:41:29.650Z,5.87
2018-12-23T07:46:32.800Z,5.67
2018-12-23T07:51:35.939Z,5.73
2018-12-23T07:56:39.073Z,5.50
2018-12-23T08:01:42.267Z,5.43
2018-12-23T08:23:09.850Z,4.83
2018-12-23T08:28:12.982Z,5.53
2018-12-23T08:33:16.144Z,5.53
2018-12-23T08:54:44.632Z,4.83
2018-12-23T08:59:47.763Z,5.23
2018-12-23T09:21:15.960Z,5.27
2018-12-23T09:26:19.046Z,4.33
2018-12-23T09:31:22.174Z,5.23
2018-12-23T09:36:25.354Z,5.20
2018-12-23T09:41:28.493Z,4.53
2018-12-23T10:02:56.710Z,4.87
2018-12-23T10:24:24.085Z,5.27
2018-12-23T10:45:51.353Z,4.60
2018-12-23T11:07:19.859Z,4.80
2018-12-23T11:28:47.794Z,5.10
2018-12-23T11:33:50.931Z,5.40
2018-12-23T11:55:18.787Z,5.03
2018-12-23T12:00:21.982Z,5.13
2018-12-23T12:05:25.195Z,4.97
2018-12-23T12:26:52.780Z,4.80
2018-12-23T12:31:55.983Z,4.73
2018-12-23T12:36:59.198Z,5.10
2018-12-23T12:42:02.356Z,4.97
2018-12-23T12:47:05.469Z,4.83
2018-12-23T12:52:08.558Z,4.93
2018-12-23T13:13:36.371Z,4.90
2018-12-23T13:35:04.011Z,4.60
2018-12-23T13:40:14.721Z,4.43
2018-12-23T14:01:58.939Z,4.20
2018-12-23T14:07:12.299Z,4.30
2018-12-23T14:12:15.458Z,4.70
2018-12-23T14:17:18.642Z,4.43
2018-12-23T14:22:21.795Z,3.80
2018-12-23T14:43:49.147Z,4.20
2018-12-23T14:48:52.245Z,4.20
2018-12-23T14:53:55.326Z,4.37
2018-12-23T14:58:58.532Z,4.77
2018-12-23T15:04:01.633Z,4.23
2018-12-23T15:25:29.218Z,6.20
2018-12-23T15:30:32.412Z,7.23
2018-12-23T15:52:00.270Z,7.20
2018-12-23T15:57:03.536Z,6.53
2018-12-23T16:02:06.628Z,6.77
2018-12-23T16:07:09.762Z,6.37
2018-12-23T16:12:13.014Z,6.47
2018-12-23T16:17:16.114Z,6.03
2018-12-23T16:38:43.173Z,6.03
2018-12-23T16:43:47.027Z,6.23
2018-12-23T16:48:50.221Z,6.67
2018-12-23T16:53:53.333Z,6.07
2018-12-23T16:58:56.647Z,5.43
2018-12-23T17:03:59.847Z,6.03
2018-12-23T17:09:05.147Z,5.80
2018-12-23T17:14:08.381Z,6.27
2018-12-23T17:19:11.626Z,6.10
2018-12-23T17:24:15.312Z,5.47
2018-12-23T17:29:18.450Z,5.87
2018-12-23T17:34:21.594Z,5.87
2018-12-23T17:39:24.739Z,4.77
2018-12-23T17:44:27.887Z,4.57
2018-12-23T17:49:31.039Z,3.73
2018-12-23T17:54:34.182Z,4.43
2018-12-23T17:59:37.390Z,3.77
2018-12-23T18:04:40.525Z,3.57
2018-12-23T18:09:43.622Z,3.70
2018-12-23T18:14:46.770Z,3.83
2018-12-23T18:19:49.905Z,3.70
2018-12-23T18:24:53.004Z,3.00
2018-12-23T18:29:56.123Z,3.87
2018-12-23T18:34:59.318Z,3.90
2018-12-23T18:40:02.539Z,3.37
2018-12-23T18:45:05.735Z,3.50
2018-12-23T18:50:08.938Z,3.33
2018-12-23T18:55:12.449Z,3.00
2018-12-23T19:00:15.671Z,3.27
2018-12-23T19:21:55.730Z,2.97
2018-12-23T19:27:14.081Z,2.97
2018-12-23T19:33:31.353Z,2.60
2018-12-23T19:39:43.762Z,2.80
2018-12-23T19:44:58.344Z,2.60
2018-12-23T20:06:40.264Z,2.40
2018-12-23T20:30:25.598Z,2.10
2018-12-23T20:52:06.758Z,2.20
2018-12-23T20:57:26.643Z,1.90
2018-12-23T21:03:02.063Z,2.00
2018-12-23T21:24:42.858Z,1.77
2018-12-23T21:30:02.771Z,1.80
2018-12-23T21:51:45.441Z,1.80
2018-12-23T22:00:03.863Z,1.73
2018-12-23T22:05:17.416Z,1.70
2018-12-23T22:10:40.091Z,2.03
2018-12-23T22:15:43.266Z,1.67
2018-12-23T22:20:46.466Z,1.80
2018-12-23T22:25:50.611Z,1.90
2018-12-23T22:30:53.811Z,1.70
2018-12-23T22:35:56.952Z,1.73
2018-12-23T22:41:03.610Z,1.50
2018-12-23T22:46:06.813Z,1.60
2018-12-23T22:51:09.896Z,1.50
2018-12-23T22:56:13.102Z,1.77
2018-12-23T23:01:16.566Z,1.60
2018-12-23T23:06:19.638Z,1.60
2018-12-23T23:11:22.734Z,1.40
2018-12-23T23:16:25.820Z,1.30
2018-12-23T23:21:28.966Z,1.40
2018-12-23T23:26:32.066Z,1.33
2018-12-23T23:31:35.210Z,1.70
2018-12-23T23:36:38.483Z,1.43
2018-12-23T23:41:41.626Z,1.40
2018-12-23T23:46:44.776Z,1.50
2018-12-23T23:51:47.915Z,1.80
2018-12-23T23:56:50.994Z,1.70
